ADDS TAF Board (Experimental) INFO Settings
IDs: Format: Expanded Condensed

KSFO - San Francisco Intl, CA, US

Issued at 2348 UTC 26 Jul 2016
Updated at 0342 UTC 27 Jul 2016
Time0256Z 27/04Z 27/05Z 27/06Z 27/07Z 27/08Z 27/09Z 27/10Z 27/11Z 27/12Z 27/13Z 27/14Z 27/15Z 27/16Z
Type OBS PRVL PRVL PRVL PRVL PRVL PRVL PRVL PRVL PRVL PRVL PRVL PRVL PRVL
VIS 10 6 6 6 6 6 6 6 6 6 6 6 6 6
CIG -- -- -- -- -- -- -- -- -- -- -- -- -- --
Cover SCT SCT SCT SCT SCT SCT SCT SCT SCT SCT SCT SCT SCT SCT
FltCat VFR VFR VFR VFR VFR VFR VFR VFR VFR VFR VFR VFR VFR VFR
WX -- HZ HZ HZ HZ HZ HZ HZ HZ HZ HZ HZ HZ HZ
WDir 300 290 290 290 290 290 290 290 290 290 290 290 290 290
WSpd 14 12 12 12 12 12 12 12 12 12 12 12 12 12
WGst -- -- -- -- -- -- -- -- -- -- -- -- -- --
R01/19
XWnd 14 12 12 12 12 12 12 12 12 12 12 12 12 12
HWnd 1 -1 -1 -1 -1 -1 -1 -1 -1 -1 -1 -1 -1 -1
R10/28
XWnd 1 -1 -1 -1 -1 -1 -1 -1 -1 -1 -1 -1 -1 -1
HWnd -14 -12 -12 -12 -12 -12 -12 -12 -12 -12 -12 -12 -12 -12

Raw TAF
KSFO 262348Z 2700/2806 29016KT P6SM SCT200
  FM270400 29012KT 6SM HZ FEW007 SCT200
  FM272100 30016KT P6SM FEW150 SCT200
  FM280400 29010KT P6SM FEW150 SCT200


Raw METAR
KSFO 270256Z 30014KT 10SM FEW012 SCT200 18/10 A2983 RMK AO2 SLP101 T01830100 53001
KSFO 270156Z 29018KT 10SM FEW011 SCT200 23/09 A2982 RMK AO2 SLP098 T02280094
KSFO 270056Z 29019KT 10SM SCT200 23/09 A2982 RMK AO2 SLP098 T02330094

METAR Board
Radar Display
Forecast Discussion

TAF Board Legend

Potential Impact
Threat None Slight Moderate High
Visibility (sm) ≥5.1 5.1>X≥3 3>X≥1 <1
Ceiling (100 ft) ≥30.1 30.1>X≥10 10>X≥5 <5
Wind Speed (kt) <10 10≤X<20 20≤X<30 ≥30
Wind Gust (kt) <15 15≤X<25 25≤X<35 ≥35
Weather No Wx Reported VCTS,-TS,-FZRA,SN TS,FZRA +TS,+FZRA,+SN